sensor_id;sensor_type;location;lat;lon;timestamp;P1;durP1;ratioP1;P2;durP2;ratioP2
18783;SDS011;9520;50.954;6.968;2023-04-29T00:00:06;1.30;;;1.10;;
18783;SDS011;9520;50.954;6.968;2023-04-29T00:00:32;0.70;;;0.70;;
18783;SDS011;9520;50.954;6.968;2023-04-29T00:00:54;2.88;;;0.70;;
18783;SDS011;9520;50.954;6.968;2023-04-29T00:01:16;1.55;;;1.08;;
18783;SDS011;9520;50.954;6.968;2023-04-29T00:01:39;1.13;;;1.00;;
18783;SDS011;9520;50.954;6.968;2023-04-29T00:02:01;2.03;;;1.13;;
18783;SDS011;9520;50.954;6.968;2023-04-29T00:02:23;1.98;;;1.08;;
18783;SDS011;9520;50.954;6.968;2023-04-29T00:02:45;0.70;;;0.70;;
18783;SDS011;9520;50.954;6.968;2023-04-29T00:03:08;0.80;;;0.60;;
18783;SDS011;9520;50.954;6.968;2023-04-29T00:03:31;0.68;;;0.68;;
18783;SDS011;9520;50.954;6.968;2023-04-29T00:03:53;0.82;;;0.80;;
18783;SDS011;9520;50.954;6.968;2023-04-29T00:04:17;1.38;;;0.95;;
18783;SDS011;9520;50.954;6.968;2023-04-29T00:04:39;1.40;;;1.00;;
18783;SDS011;9520;50.954;6.968;2023-04-29T00:05:02;1.73;;;1.17;;
18783;SDS011;9520;50.954;6.968;2023-04-29T00:05:25;1.48;;;1.02;;
18783;SDS011;9520;50.954;6.968;2023-04-29T00:05:48;0.90;;;0.80;;
18783;SDS011;9520;50.954;6.968;2023-04-29T00:06:11;0.82;;;0.82;;
18783;SDS011;9520;50.954;6.968;2023-04-29T00:06:33;1.88;;;0.93;;
18783;SDS011;9520;50.954;6.968;2023-04-29T00:06:55;1.70;;;1.10;;
18783;SDS011;9520;50.954;6.968;2023-04-29T00:07:17;1.10;;;1.00;;
18783;SDS011;9520;50.954;6.968;2023-04-29T00:07:40;1.05;;;0.90;;
18783;SDS011;9520;50.954;6.968;2023-04-29T00:08:03;1.35;;;1.17;;
18783;SDS011;9520;50.954;6.968;2023-04-29T00:08:26;1.15;;;1.05;;
18783;SDS011;9520;50.954;6.968;2023-04-29T00:08:48;1.08;;;0.98;;
18783;SDS011;9520;50.954;6.968;2023-04-29T00:09:12;1.00;;;0.80;;
18783;SDS011;9520;50.954;6.968;2023-04-29T00:09:34;1.00;;;0.80;;
18783;SDS011;9520;50.954;6.968;2023-04-29T00:09:57;0.70;;;0.60;;
18783;SDS011;9520;50.954;6.968;2023-04-29T00:10:21;1.02;;;0.70;;
18783;SDS011;9520;50.954;6.968;2023-04-29T00:10:44;0.90;;;0.80;;
18783;SDS011;9520;50.954;6.968;2023-04-29T00:11:05;1.70;;;1.02;;
18783;SDS011;9520;50.954;6.968;2023-04-29T00:11:27;4.35;;;1.00;;
18783;SDS011;9520;50.954;6.968;2023-04-29T00:11:49;1.40;;;1.10;;
18783;SDS011;9520;50.954;6.968;2023-04-29T00:12:12;1.50;;;0.77;;
18783;SDS011;9520;50.954;6.968;2023-04-29T00:12:35;1.60;;;0.90;;
18783;SDS011;9520;50.954;6.968;2023-04-29T00:12:57;2.00;;;0.80;;
18783;SDS011;9520;50.954;6.968;2023-04-29T00:13:19;0.73;;;0.73;;
18783;SDS011;9520;50.954;6.968;2023-04-29T00:13:41;2.50;;;1.10;;
18783;SDS011;9520;50.954;6.968;2023-04-29T00:14:05;3.53;;;0.98;;
18783;SDS011;9520;50.954;6.968;2023-04-29T00:14:27;2.47;;;0.90;;
18783;SDS011;9520;50.954;6.968;2023-04-29T00:14:49;0.80;;;0.73;;
18783;SDS011;9520;50.954;6.968;2023-04-29T00:15:12;1.63;;;1.15;;
18783;SDS011;9520;50.954;6.968;2023-04-29T00:15:35;2.95;;;1.58;;
18783;SDS011;9520;50.954;6.968;2023-04-29T00:15:57;2.42;;;1.05;;
18783;SDS011;9520;50.954;6.968;2023-04-29T00:16:19;0.77;;;0.63;;
18783;SDS011;9520;50.954;6.968;2023-04-29T00:16:41;1.30;;;1.00;;
18783;SDS011;9520;50.954;6.968;2023-04-29T00:17:03;0.93;;;0.85;;
18783;SDS011;9520;50.954;6.968;2023-04-29T00:17:26;2.20;;;1.20;;
18783;SDS011;9520;50.954;6.968;2023-04-29T00:17:47;2.08;;;1.13;;
18783;SDS011;9520;50.954;6.968;2023-04-29T00:18:09;1.13;;;0.98;;
18783;SDS011;9520;50.954;6.968;2023-04-29T00:18:31;1.10;;;1.00;;
18783;SDS011;9520;50.954;6.968;2023-04-29T00:18:54;1.10;;;0.80;;
18783;SDS011;9520;50.954;6.968;2023-04-29T00:19:15;0.77;;;0.77;;
18783;SDS011;9520;50.954;6.968;2023-04-29T00:19:38;1.63;;;0.90;;
18783;SDS011;9520;50.954;6.968;2023-04-29T00:20:00;1.10;;;1.00;;
18783;SDS011;9520;50.954;6.968;2023-04-29T00:20:23;0.98;;;0.88;;
18783;SDS011;9520;50.954;6.968;2023-04-29T00:20:45;2.47;;;1.33;;
18783;SDS011;9520;50.954;6.968;2023-04-29T00:21:06;2.28;;;1.25;;
18783;SDS011;9520;50.954;6.968;2023-04-29T00:21:28;2.33;;;1.10;;
18783;SDS011;9520;50.954;6.968;2023-04-29T00:21:52;1.20;;;1.00;;
18783;SDS011;9520;50.954;6.968;2023-04-29T00:22:15;1.45;;;1.17;;
18783;SDS011;9520;50.954;6.968;2023-04-29T00:22:37;1.10;;;0.95;;
18783;SDS011;9520;50.954;6.968;2023-04-29T00:23:00;1.35;;;0.82;;
18783;SDS011;9520;50.954;6.968;2023-04-29T00:23:22;1.52;;;1.10;;
18783;SDS011;9520;50.954;6.968;2023-04-29T00:23:44;1.80;;;1.10;;
18783;SDS011;9520;50.954;6.968;2023-04-29T00:24:06;1.50;;;1.00;;
18783;SDS011;9520;50.954;6.968;2023-04-29T00:24:28;0.70;;;0.65;;
18783;SDS011;9520;50.954;6.968;2023-04-29T00:24:50;0.80;;;0.80;;
18783;SDS011;9520;50.954;6.968;2023-04-29T00:25:13;1.25;;;1.10;;
18783;SDS011;9520;50.954;6.968;2023-04-29T00:25:36;1.67;;;1.05;;
18783;SDS011;9520;50.954;6.968;2023-04-29T00:25:59;1.13;;;0.90;;
18783;SDS011;9520;50.954;6.968;2023-04-29T00:26:21;1.45;;;1.05;;
18783;SDS011;9520;50.954;6.968;2023-04-29T00:26:45;1.58;;;1.20;;
18783;SDS011;9520;50.954;6.968;2023-04-29T00:27:07;1.15;;;0.85;;
18783;SDS011;9520;50.954;6.968;2023-04-29T00:27:29;1.17;;;0.98;;
18783;SDS011;9520;50.954;6.968;2023-04-29T00:27:51;1.60;;;1.25;;
18783;SDS011;9520;50.954;6.968;2023-04-29T00:28:14;2.83;;;1.33;;
18783;SDS011;9520;50.954;6.968;2023-04-29T00:28:36;3.05;;;0.85;;
18783;SDS011;9520;50.954;6.968;2023-04-29T00:28:58;2.95;;;0.90;;
18783;SDS011;9520;50.954;6.968;2023-04-29T00:29:20;1.20;;;1.00;;
18783;SDS011;9520;50.954;6.968;2023-04-29T00:29:44;1.52;;;1.13;;
18783;SDS011;9520;50.954;6.968;2023-04-29T00:30:06;1.50;;;0.95;;
18783;SDS011;9520;50.954;6.968;2023-04-29T00:30:31;1.48;;;0.85;;
18783;SDS011;9520;50.954;6.968;2023-04-29T00:30:54;1.50;;;1.20;;
18783;SDS011;9520;50.954;6.968;2023-04-29T00:31:17;1.33;;;1.17;;
18783;SDS011;9520;50.954;6.968;2023-04-29T00:31:39;0.80;;;0.80;;
18783;SDS011;9520;50.954;6.968;2023-04-29T00:32:01;0.70;;;0.70;;
18783;SDS011;9520;50.954;6.968;2023-04-29T00:32:25;1.00;;;0.88;;
18783;SDS011;9520;50.954;6.968;2023-04-29T00:32:48;1.70;;;1.13;;
18783;SDS011;9520;50.954;6.968;2023-04-29T00:33:10;2.03;;;1.52;;
18783;SDS011;9520;50.954;6.968;2023-04-29T00:33:33;1.63;;;0.98;;
18783;SDS011;9520;50.954;6.968;2023-04-29T00:33:55;3.33;;;1.20;;
18783;SDS011;9520;50.954;6.968;2023-04-29T00:34:50;1.65;;;1.17;;
18783;SDS011;9520;50.954;6.968;2023-04-29T00:35:12;2.30;;;1.20;;
18783;SDS011;9520;50.954;6.968;2023-04-29T00:35:35;2.13;;;1.15;;
18783;SDS011;9520;50.954;6.968;2023-04-29T00:35:57;1.40;;;1.00;;
18783;SDS011;9520;50.954;6.968;2023-04-29T00:36:19;2.05;;;1.33;;
18783;SDS011;9520;50.954;6.968;2023-04-29T00:36:40;2.85;;;1.17;;
18783;SDS011;9520;50.954;6.968;2023-04-29T00:37:03;0.85;;;0.70;;
18783;SDS011;9520;50.954;6.968;2023-04-29T00:37:25;2.63;;;1.02;;
18783;SDS011;9520;50.954;6.968;2023-04-29T00:37:47;1.58;;;0.98;;
18783;SDS011;9520;50.954;6.968;2023-04-29T00:38:09;0.85;;;0.82;;
18783;SDS011;9520;50.954;6.968;2023-04-29T00:38:31;0.85;;;0.80;;
18783;SDS011;9520;50.954;6.968;2023-04-29T00:38:54;1.08;;;0.98;;
18783;SDS011;9520;50.954;6.968;2023-04-29T00:39:15;1.77;;;1.20;;
18783;SDS011;9520;50.954;6.968;2023-04-29T00:39:37;1.52;;;0.98;;
18783;SDS011;9520;50.954;6.968;2023-04-29T00:39:59;1.10;;;0.90;;
18783;SDS011;9520;50.954;6.968;2023-04-29T00:40:22;1.98;;;0.82;;
18783;SDS011;9520;50.954;6.968;2023-04-29T00:40:44;2.33;;;1.17;;
18783;SDS011;9520;50.954;6.968;2023-04-29T00:41:06;1.50;;;1.10;;
18783;SDS011;9520;50.954;6.968;2023-04-29T00:41:28;1.43;;;1.10;;
18783;SDS011;9520;50.954;6.968;2023-04-29T00:41:52;1.98;;;1.23;;
18783;SDS011;9520;50.954;6.968;2023-04-29T00:42:14;2.20;;;1.05;;
18783;SDS011;9520;50.954;6.968;2023-04-29T00:42:37;3.07;;;0.87;;
18783;SDS011;9520;50.954;6.968;2023-04-29T00:42:58;2.17;;;1.42;;
18783;SDS011;9520;50.954;6.968;2023-04-29T00:43:21;1.55;;;1.05;;
18783;SDS011;9520;50.954;6.968;2023-04-29T00:43:44;1.10;;;1.00;;
18783;SDS011;9520;50.954;6.968;2023-04-29T00:44:06;1.27;;;1.02;;
18783;SDS011;9520;50.954;6.968;2023-04-29T00:44:28;1.20;;;0.90;;
18783;SDS011;9520;50.954;6.968;2023-04-29T00:44:51;1.43;;;0.80;;
18783;SDS011;9520;50.954;6.968;2023-04-29T00:45:13;1.92;;;1.42;;
18783;SDS011;9520;50.954;6.968;2023-04-29T00:45:36;2.67;;;1.35;;
18783;SDS011;9520;50.954;6.968;2023-04-29T00:45:58;4.20;;;1.17;;
18783;SDS011;9520;50.954;6.968;2023-04-29T00:46:21;1.45;;;0.82;;
18783;SDS011;9520;50.954;6.968;2023-04-29T00:46:43;1.55;;;0.90;;
18783;SDS011;9520;50.954;6.968;2023-04-29T00:47:06;0.80;;;0.80;;
18783;SDS011;9520;50.954;6.968;2023-04-29T00:47:31;1.17;;;1.05;;
18783;SDS011;9520;50.954;6.968;2023-04-29T00:47:53;2.50;;;1.10;;
18783;SDS011;9520;50.954;6.968;2023-04-29T00:48:16;1.80;;;1.10;;
18783;SDS011;9520;50.954;6.968;2023-04-29T00:48:38;0.90;;;0.75;;
18783;SDS011;9520;50.954;6.968;2023-04-29T00:49:01;2.70;;;1.40;;
18783;SDS011;9520;50.954;6.968;2023-04-29T00:49:24;2.05;;;1.10;;
18783;SDS011;9520;50.954;6.968;2023-04-29T00:49:47;1.30;;;1.10;;
18783;SDS011;9520;50.954;6.968;2023-04-29T00:50:09;0.90;;;0.88;;
18783;SDS011;9520;50.954;6.968;2023-04-29T00:50:31;1.10;;;0.90;;
18783;SDS011;9520;50.954;6.968;2023-04-29T00:50:53;1.75;;;1.35;;
18783;SDS011;9520;50.954;6.968;2023-04-29T00:51:16;1.92;;;1.23;;
18783;SDS011;9520;50.954;6.968;2023-04-29T00:51:39;3.60;;;1.30;;
18783;SDS011;9520;50.954;6.968;2023-04-29T00:52:02;2.03;;;1.15;;
18783;SDS011;9520;50.954;6.968;2023-04-29T00:52:24;0.77;;;0.73;;
18783;SDS011;9520;50.954;6.968;2023-04-29T00:52:48;2.17;;;1.13;;
18783;SDS011;9520;50.954;6.968;2023-04-29T00:53:13;1.75;;;1.08;;
18783;SDS011;9520;50.954;6.968;2023-04-29T00:53:36;1.20;;;1.10;;
18783;SDS011;9520;50.954;6.968;2023-04-29T00:54:00;0.80;;;0.80;;
18783;SDS011;9520;50.954;6.968;2023-04-29T00:54:22;1.02;;;1.00;;
18783;SDS011;9520;50.954;6.968;2023-04-29T00:54:44;2.35;;;1.23;;
18783;SDS011;9520;50.954;6.968;2023-04-29T00:55:06;2.83;;;1.33;;
18783;SDS011;9520;50.954;6.968;2023-04-29T00:55:29;2.70;;;1.02;;
18783;SDS011;9520;50.954;6.968;2023-04-29T00:55:54;1.60;;;0.90;;
18783;SDS011;9520;50.954;6.968;2023-04-29T00:56:16;1.88;;;1.08;;
18783;SDS011;9520;50.954;6.968;2023-04-29T00:56:41;1.48;;;0.98;;
18783;SDS011;9520;50.954;6.968;2023-04-29T00:57:08;1.60;;;1.17;;
18783;SDS011;9520;50.954;6.968;2023-04-29T00:57:31;1.08;;;0.80;;
18783;SDS011;9520;50.954;6.968;2023-04-29T00:57:54;2.25;;;1.00;;
18783;SDS011;9520;50.954;6.968;2023-04-29T00:58:17;2.13;;;1.15;;
18783;SDS011;9520;50.954;6.968;2023-04-29T00:58:41;2.30;;;1.23;;
18783;SDS011;9520;50.954;6.968;2023-04-29T00:59:10;1.33;;;0.85;;
18783;SDS011;9520;50.954;6.968;2023-04-29T00:59:33;1.30;;;0.90;;
18783;SDS011;9520;50.954;6.968;2023-04-29T00:59:56;1.25;;;0.93;;
18783;SDS011;9520;50.954;6.968;2023-04-29T01:00:21;2.08;;;1.15;;
18783;SDS011;9520;50.954;6.968;2023-04-29T01:00:49;3.25;;;1.23;;
18783;SDS011;9520;50.954;6.968;2023-04-29T01:01:11;1.80;;;1.20;;
18783;SDS011;9520;50.954;6.968;2023-04-29T01:01:33;1.85;;;0.98;;
18783;SDS011;9520;50.954;6.968;2023-04-29T01:01:58;2.00;;;1.00;;
18783;SDS011;9520;50.954;6.968;2023-04-29T01:02:21;1.05;;;0.70;;
18783;SDS011;9520;50.954;6.968;2023-04-29T01:02:44;1.00;;;0.80;;
18783;SDS011;9520;50.954;6.968;2023-04-29T01:03:07;2.03;;;0.93;;
18783;SDS011;9520;50.954;6.968;2023-04-29T01:03:31;1.77;;;1.00;;
18783;SDS011;9520;50.954;6.968;2023-04-29T01:03:54;3.28;;;1.52;;
18783;SDS011;9520;50.954;6.968;2023-04-29T01:04:20;2.80;;;1.30;;
18783;SDS011;9520;50.954;6.968;2023-04-29T01:04:43;2.50;;;1.20;;
18783;SDS011;9520;50.954;6.968;2023-04-29T01:05:33;1.50;;;1.00;;
18783;SDS011;9520;50.954;6.968;2023-04-29T01:05:56;0.82;;;0.70;;
18783;SDS011;9520;50.954;6.968;2023-04-29T01:06:32;1.20;;;1.08;;
18783;SDS011;9520;50.954;6.968;2023-04-29T01:07:03;1.50;;;0.90;;
18783;SDS011;9520;50.954;6.968;2023-04-29T01:07:33;2.80;;;0.85;;
18783;SDS011;9520;50.954;6.968;2023-04-29T01:08:08;2.83;;;1.20;;
18783;SDS011;9520;50.954;6.968;2023-04-29T01:08:42;1.38;;;0.98;;
18783;SDS011;9520;50.954;6.968;2023-04-29T01:09:16;1.27;;;1.17;;
18783;SDS011;9520;50.954;6.968;2023-04-29T01:09:52;0.85;;;0.75;;
18783;SDS011;9520;50.954;6.968;2023-04-29T01:10:26;1.40;;;0.95;;
18783;SDS011;9520;50.954;6.968;2023-04-29T01:10:52;1.40;;;1.00;;
18783;SDS011;9520;50.954;6.968;2023-04-29T01:11:15;1.10;;;0.98;;
18783;SDS011;9520;50.954;6.968;2023-04-29T01:11:46;2.63;;;1.42;;
18783;SDS011;9520;50.954;6.968;2023-04-29T01:12:18;2.60;;;1.50;;
18783;SDS011;9520;50.954;6.968;2023-04-29T01:12:44;1.10;;;1.00;;
18783;SDS011;9520;50.954;6.968;2023-04-29T01:13:08;1.10;;;1.00;;
18783;SDS011;9520;50.954;6.968;2023-04-29T01:13:36;2.60;;;1.20;;
18783;SDS011;9520;50.954;6.968;2023-04-29T01:14:04;0.98;;;0.80;;
18783;SDS011;9520;50.954;6.968;2023-04-29T01:14:28;1.15;;;0.88;;
18783;SDS011;9520;50.954;6.968;2023-04-29T01:14:53;1.75;;;1.13;;
18783;SDS011;9520;50.954;6.968;2023-04-29T01:15:27;2.05;;;1.23;;
18783;SDS011;9520;50.954;6.968;2023-04-29T01:15:55;1.25;;;0.95;;
18783;SDS011;9520;50.954;6.968;2023-04-29T01:16:24;2.85;;;1.30;;
18783;SDS011;9520;50.954;6.968;2023-04-29T01:16:52;1.48;;;1.17;;
18783;SDS011;9520;50.954;6.968;2023-04-29T01:17:22;1.10;;;0.95;;
18783;SDS011;9520;50.954;6.968;2023-04-29T01:17:47;1.13;;;0.80;;
18783;SDS011;9520;50.954;6.968;2023-04-29T01:18:14;2.30;;;1.10;;
18783;SDS011;9520;50.954;6.968;2023-04-29T01:18:41;1.48;;;1.00;;
18783;SDS011;9520;50.954;6.968;2023-04-29T01:19:15;2.28;;;1.27;;
18783;SDS011;9520;50.954;6.968;2023-04-29T01:19:43;1.05;;;0.95;;
18783;SDS011;9520;50.954;6.968;2023-04-29T01:20:08;1.38;;;1.00;;
18783;SDS011;9520;50.954;6.968;2023-04-29T01:20:30;2.75;;;1.05;;
18783;SDS011;9520;50.954;6.968;2023-04-29T01:20:54;2.58;;;0.90;;
18783;SDS011;9520;50.954;6.968;2023-04-29T01:21:19;1.95;;;1.00;;
18783;SDS011;9520;50.954;6.968;2023-04-29T01:21:44;1.35;;;0.95;;
18783;SDS011;9520;50.954;6.968;2023-04-29T01:22:06;1.05;;;0.90;;
18783;SDS011;9520;50.954;6.968;2023-04-29T01:22:28;2.67;;;1.35;;
18783;SDS011;9520;50.954;6.968;2023-04-29T01:22:51;3.00;;;1.55;;
18783;SDS011;9520;50.954;6.968;2023-04-29T01:23:13;5.50;;;1.48;;
18783;SDS011;9520;50.954;6.968;2023-04-29T01:23:36;5.80;;;1.50;;
18783;SDS011;9520;50.954;6.968;2023-04-29T01:23:58;1.90;;;1.42;;
18783;SDS011;9520;50.954;6.968;2023-04-29T01:24:24;1.90;;;1.30;;
18783;SDS011;9520;50.954;6.968;2023-04-29T01:24:46;1.92;;;1.27;;
18783;SDS011;9520;50.954;6.968;2023-04-29T01:25:09;2.03;;;1.35;;
18783;SDS011;9520;50.954;6.968;2023-04-29T01:25:50;4.43;;;1.58;;
18783;SDS011;9520;50.954;6.968;2023-04-29T01:26:25;4.90;;;1.10;;
18783;SDS011;9520;50.954;6.968;2023-04-29T01:27:01;1.98;;;1.42;;
18783;SDS011;9520;50.954;6.968;2023-04-29T01:27:45;3.08;;;1.08;;
18783;SDS011;9520;50.954;6.968;2023-04-29T01:28:16;5.68;;;1.52;;
18783;SDS011;9520;50.954;6.968;2023-04-29T01:29:07;1.50;;;1.30;;
18783;SDS011;9520;50.954;6.968;2023-04-29T01:29:42;1.65;;;1.42;;
18783;SDS011;9520;50.954;6.968;2023-04-29T01:30:11;1.77;;;1.38;;
18783;SDS011;9520;50.954;6.968;2023-04-29T01:30:44;3.97;;;1.30;;
18783;SDS011;9520;50.954;6.968;2023-04-29T01:31:14;2.10;;;1.20;;
18783;SDS011;9520;50.954;6.968;2023-04-29T01:31:40;3.03;;;1.40;;
18783;SDS011;9520;50.954;6.968;2023-04-29T01:32:08;4.05;;;1.33;;
18783;SDS011;9520;50.954;6.968;2023-04-29T01:32:40;2.70;;;1.27;;
18783;SDS011;9520;50.954;6.968;2023-04-29T01:33:10;1.70;;;1.15;;
18783;SDS011;9520;50.954;6.968;2023-04-29T01:33:40;1.80;;;1.50;;
18783;SDS011;9520;50.954;6.968;2023-04-29T01:34:10;3.80;;;1.40;;
18783;SDS011;9520;50.954;6.968;2023-04-29T01:34:39;1.98;;;1.38;;
18783;SDS011;9520;50.954;6.968;2023-04-29T01:35:07;1.83;;;1.48;;
18783;SDS011;9520;50.954;6.968;2023-04-29T01:35:39;2.40;;;1.40;;
18783;SDS011;9520;50.954;6.968;2023-04-29T01:36:12;1.48;;;1.02;;
18783;SDS011;9520;50.954;6.968;2023-04-29T01:36:44;3.20;;;1.50;;
18783;SDS011;9520;50.954;6.968;2023-04-29T01:37:32;3.42;;;1.48;;
18783;SDS011;9520;50.954;6.968;2023-04-29T01:38:02;5.30;;;1.95;;
18783;SDS011;9520;50.954;6.968;2023-04-29T01:38:35;1.65;;;1.25;;
18783;SDS011;9520;50.954;6.968;2023-04-29T01:39:05;2.15;;;1.23;;
18783;SDS011;9520;50.954;6.968;2023-04-29T01:39:36;1.30;;;1.20;;
18783;SDS011;9520;50.954;6.968;2023-04-29T01:40:08;1.95;;;1.35;;
18783;SDS011;9520;50.954;6.968;2023-04-29T01:40:43;1.67;;;1.30;;
18783;SDS011;9520;50.954;6.968;2023-04-29T01:41:17;2.85;;;1.50;;
18783;SDS011;9520;50.954;6.968;2023-04-29T01:41:56;3.17;;;1.77;;
18783;SDS011;9520;50.954;6.968;2023-04-29T01:42:33;3.20;;;1.75;;
18783;SDS011;9520;50.954;6.968;2023-04-29T01:43:07;3.13;;;1.52;;
18783;SDS011;9520;50.954;6.968;2023-04-29T01:43:36;5.18;;;1.90;;
18783;SDS011;9520;50.954;6.968;2023-04-29T01:44:15;3.47;;;1.63;;
18783;SDS011;9520;50.954;6.968;2023-04-29T01:44:41;2.88;;;1.30;;
18783;SDS011;9520;50.954;6.968;2023-04-29T01:45:05;4.25;;;1.63;;
18783;SDS011;9520;50.954;6.968;2023-04-29T01:45:31;2.53;;;1.38;;
18783;SDS011;9520;50.954;6.968;2023-04-29T01:45:54;2.60;;;1.75;;
18783;SDS011;9520;50.954;6.968;2023-04-29T01:46:18;3.45;;;1.92;;
18783;SDS011;9520;50.954;6.968;2023-04-29T01:46:40;2.95;;;1.75;;
18783;SDS011;9520;50.954;6.968;2023-04-29T01:47:03;3.33;;;1.75;;
18783;SDS011;9520;50.954;6.968;2023-04-29T01:47:33;1.90;;;1.30;;
18783;SDS011;9520;50.954;6.968;2023-04-29T01:47:58;2.95;;;1.50;;
18783;SDS011;9520;50.954;6.968;2023-04-29T01:48:21;2.50;;;1.42;;
18783;SDS011;9520;50.954;6.968;2023-04-29T01:48:43;3.75;;;1.80;;
18783;SDS011;9520;50.954;6.968;2023-04-29T01:49:05;5.70;;;2.27;;
18783;SDS011;9520;50.954;6.968;2023-04-29T01:49:27;4.57;;;1.75;;
18783;SDS011;9520;50.954;6.968;2023-04-29T01:49:51;3.72;;;1.75;;
18783;SDS011;9520;50.954;6.968;2023-04-29T01:50:13;3.65;;;2.08;;
18783;SDS011;9520;50.954;6.968;2023-04-29T01:50:35;3.65;;;1.90;;
18783;SDS011;9520;50.954;6.968;2023-04-29T01:51:08;4.25;;;1.60;;
18783;SDS011;9520;50.954;6.968;2023-04-29T01:51:32;1.65;;;1.48;;
18783;SDS011;9520;50.954;6.968;2023-04-29T01:51:55;2.65;;;1.80;;
18783;SDS011;9520;50.954;6.968;2023-04-29T01:52:17;3.53;;;1.77;;
18783;SDS011;9520;50.954;6.968;2023-04-29T01:52:46;3.47;;;1.58;;
18783;SDS011;9520;50.954;6.968;2023-04-29T01:53:09;3.65;;;1.75;;
18783;SDS011;9520;50.954;6.968;2023-04-29T01:53:31;1.75;;;1.35;;
18783;SDS011;9520;50.954;6.968;2023-04-29T01:53:54;2.60;;;1.77;;
18783;SDS011;9520;50.954;6.968;2023-04-29T01:54:17;2.83;;;1.33;;
18783;SDS011;9520;50.954;6.968;2023-04-29T01:54:40;3.75;;;1.88;;
18783;SDS011;9520;50.954;6.968;2023-04-29T01:55:02;3.53;;;1.73;;
18783;SDS011;9520;50.954;6.968;2023-04-29T01:55:34;3.08;;;1.80;;
18783;SDS011;9520;50.954;6.968;2023-04-29T01:56:10;2.72;;;1.98;;
18783;SDS011;9520;50.954;6.968;2023-04-29T01:56:56;8.07;;;2.00;;
18783;SDS011;9520;50.954;6.968;2023-04-29T01:57:30;2.45;;;1.65;;
18783;SDS011;9520;50.954;6.968;2023-04-29T01:58:02;4.10;;;2.05;;
18783;SDS011;9520;50.954;6.968;2023-04-29T01:58:38;3.95;;;2.20;;
18783;SDS011;9520;50.954;6.968;2023-04-29T01:59:26;5.10;;;1.80;;
18783;SDS011;9520;50.954;6.968;2023-04-29T02:00:17;3.53;;;2.10;;
18783;SDS011;9520;50.954;6.968;2023-04-29T02:00:44;3.00;;;1.80;;
18783;SDS011;9520;50.954;6.968;2023-04-29T02:01:07;4.72;;;1.98;;
18783;SDS011;9520;50.954;6.968;2023-04-29T02:01:30;4.35;;;2.05;;
18783;SDS011;9520;50.954;6.968;2023-04-29T02:01:52;2.00;;;1.50;;
18783;SDS011;9520;50.954;6.968;2023-04-29T02:02:14;3.80;;;2.00;;
18783;SDS011;9520;50.954;6.968;2023-04-29T02:02:45;3.90;;;2.05;;
18783;SDS011;9520;50.954;6.968;2023-04-29T02:03:31;3.83;;;2.40;;
18783;SDS011;9520;50.954;6.968;2023-04-29T02:03:55;2.97;;;2.15;;
18783;SDS011;9520;50.954;6.968;2023-04-29T02:04:18;2.83;;;2.25;;
18783;SDS011;9520;50.954;6.968;2023-04-29T02:04:41;4.97;;;2.15;;
18783;SDS011;9520;50.954;6.968;2023-04-29T02:05:04;5.45;;;1.63;;
18783;SDS011;9520;50.954;6.968;2023-04-29T02:05:26;4.35;;;2.03;;
18783;SDS011;9520;50.954;6.968;2023-04-29T02:05:52;2.92;;;1.98;;
18783;SDS011;9520;50.954;6.968;2023-04-29T02:06:15;4.22;;;2.22;;
18783;SDS011;9520;50.954;6.968;2023-04-29T02:06:39;2.85;;;1.60;;
18783;SDS011;9520;50.954;6.968;2023-04-29T02:07:01;6.53;;;2.10;;
18783;SDS011;9520;50.954;6.968;2023-04-29T02:07:24;6.03;;;2.03;;
18783;SDS011;9520;50.954;6.968;2023-04-29T02:07:46;4.15;;;2.15;;
18783;SDS011;9520;50.954;6.968;2023-04-29T02:08:08;4.63;;;2.35;;
18783;SDS011;9520;50.954;6.968;2023-04-29T02:08:35;6.28;;;2.47;;
18783;SDS011;9520;50.954;6.968;2023-04-29T02:08:58;4.65;;;2.63;;
18783;SDS011;9520;50.954;6.968;2023-04-29T02:09:19;3.13;;;2.00;;
18783;SDS011;9520;50.954;6.968;2023-04-29T02:09:47;6.47;;;2.10;;
18783;SDS011;9520;50.954;6.968;2023-04-29T02:10:09;3.60;;;2.00;;
18783;SDS011;9520;50.954;6.968;2023-04-29T02:10:33;4.00;;;2.00;;
18783;SDS011;9520;50.954;6.968;2023-04-29T02:11:08;5.25;;;2.45;;
18783;SDS011;9520;50.954;6.968;2023-04-29T02:11:32;6.40;;;2.75;;
18783;SDS011;9520;50.954;6.968;2023-04-29T02:11:55;4.97;;;2.40;;
18783;SDS011;9520;50.954;6.968;2023-04-29T02:12:17;5.63;;;2.63;;
18783;SDS011;9520;50.954;6.968;2023-04-29T02:12:39;4.57;;;2.22;;
18783;SDS011;9520;50.954;6.968;2023-04-29T02:13:01;3.42;;;2.10;;
18783;SDS011;9520;50.954;6.968;2023-04-29T02:13:24;2.85;;;2.08;;
18783;SDS011;9520;50.954;6.968;2023-04-29T02:13:45;5.88;;;2.53;;
18783;SDS011;9520;50.954;6.968;2023-04-29T02:14:08;6.28;;;2.33;;
18783;SDS011;9520;50.954;6.968;2023-04-29T02:14:30;10.25;;;3.00;;
18783;SDS011;9520;50.954;6.968;2023-04-29T02:14:57;2.88;;;1.95;;
18783;SDS011;9520;50.954;6.968;2023-04-29T02:15:19;5.85;;;2.55;;
18783;SDS011;9520;50.954;6.968;2023-04-29T02:15:41;4.53;;;2.55;;
18783;SDS011;9520;50.954;6.968;2023-04-29T02:16:06;3.17;;;2.17;;
18783;SDS011;9520;50.954;6.968;2023-04-29T02:16:31;5.25;;;2.50;;
18783;SDS011;9520;50.954;6.968;2023-04-29T02:16:56;7.32;;;2.80;;
18783;SDS011;9520;50.954;6.968;2023-04-29T02:17:18;5.82;;;2.40;;
18783;SDS011;9520;50.954;6.968;2023-04-29T02:17:39;9.40;;;2.00;;
18783;SDS011;9520;50.954;6.968;2023-04-29T02:18:02;5.25;;;2.08;;
18783;SDS011;9520;50.954;6.968;2023-04-29T02:18:24;6.32;;;2.33;;
18783;SDS011;9520;50.954;6.968;2023-04-29T02:18:46;4.80;;;2.17;;
18783;SDS011;9520;50.954;6.968;2023-04-29T02:19:07;6.55;;;1.95;;
18783;SDS011;9520;50.954;6.968;2023-04-29T02:19:32;9.32;;;2.90;;
18783;SDS011;9520;50.954;6.968;2023-04-29T02:19:54;4.22;;;2.42;;
18783;SDS011;9520;50.954;6.968;2023-04-29T02:20:16;5.30;;;2.30;;
18783;SDS011;9520;50.954;6.968;2023-04-29T02:20:38;3.75;;;2.20;;
18783;SDS011;9520;50.954;6.968;2023-04-29T02:20:59;2.83;;;2.00;;
18783;SDS011;9520;50.954;6.968;2023-04-29T02:21:25;5.95;;;2.60;;
18783;SDS011;9520;50.954;6.968;2023-04-29T02:21:47;4.45;;;2.25;;
18783;SDS011;9520;50.954;6.968;2023-04-29T02:22:11;5.07;;;2.60;;
18783;SDS011;9520;50.954;6.968;2023-04-29T02:22:34;3.58;;;2.03;;
18783;SDS011;9520;50.954;6.968;2023-04-29T02:22:57;5.35;;;2.55;;
18783;SDS011;9520;50.954;6.968;2023-04-29T02:23:19;3.40;;;1.88;;
18783;SDS011;9520;50.954;6.968;2023-04-29T02:23:40;4.60;;;2.15;;
18783;SDS011;9520;50.954;6.968;2023-04-29T02:24:04;4.72;;;2.20;;
18783;SDS011;9520;50.954;6.968;2023-04-29T02:24:26;4.07;;;2.53;;
18783;SDS011;9520;50.954;6.968;2023-04-29T02:24:48;4.18;;;2.20;;
18783;SDS011;9520;50.954;6.968;2023-04-29T02:25:10;3.55;;;2.03;;
18783;SDS011;9520;50.954;6.968;2023-04-29T02:25:32;5.78;;;2.50;;
18783;SDS011;9520;50.954;6.968;2023-04-29T02:25:54;5.15;;;2.15;;
18783;SDS011;9520;50.954;6.968;2023-04-29T02:26:18;4.45;;;2.28;;
18783;SDS011;9520;50.954;6.968;2023-04-29T02:26:40;4.20;;;2.63;;
18783;SDS011;9520;50.954;6.968;2023-04-29T02:27:02;6.03;;;2.85;;
18783;SDS011;9520;50.954;6.968;2023-04-29T02:27:26;6.03;;;3.30;;
18783;SDS011;9520;50.954;6.968;2023-04-29T02:27:48;4.90;;;2.45;;
18783;SDS011;9520;50.954;6.968;2023-04-29T02:28:10;6.10;;;2.83;;
18783;SDS011;9520;50.954;6.968;2023-04-29T02:28:34;3.42;;;2.20;;
18783;SDS011;9520;50.954;6.968;2023-04-29T02:28:57;3.30;;;2.15;;
18783;SDS011;9520;50.954;6.968;2023-04-29T02:29:18;4.15;;;2.28;;
18783;SDS011;9520;50.954;6.968;2023-04-29T02:29:42;6.15;;;2.80;;
18783;SDS011;9520;50.954;6.968;2023-04-29T02:30:05;6.60;;;2.85;;
18783;SDS011;9520;50.954;6.968;2023-04-29T02:30:27;7.07;;;2.35;;
18783;SDS011;9520;50.954;6.968;2023-04-29T02:30:49;7.65;;;2.85;;
18783;SDS011;9520;50.954;6.968;2023-04-29T02:31:11;6.93;;;2.72;;
18783;SDS011;9520;50.954;6.968;2023-04-29T02:31:33;5.70;;;3.20;;
18783;SDS011;9520;50.954;6.968;2023-04-29T02:31:55;9.35;;;3.65;;
18783;SDS011;9520;50.954;6.968;2023-04-29T02:32:17;11.67;;;3.20;;
18783;SDS011;9520;50.954;6.968;2023-04-29T02:32:40;4.05;;;2.05;;
18783;SDS011;9520;50.954;6.968;2023-04-29T02:33:03;3.70;;;2.42;;